Time;durP1;ratioP1;P1;durP2;ratioP2;P2;SDS_P1;SDS_P2;PMS_P1;PMS_P2;Temp;Humidity;BMP_temperature;BMP_pressure;BME280_temperature;BME280_humidity;BME280_pressure;Samples;Min_cycle;Max_cycle;Signal;HPM_P1;HPM_P2
2023/01/02 00:01:57;;;;;;;0.60;0.60;;;;;;;;;;4958445;28;20142;-69
2023/01/02 00:04:23;;;;;;;0.50;0.50;;;;;;;;;;4974575;28;20102;-69
2023/01/02 00:06:49;;;;;;;0.65;0.50;;;;;;;;;;4958075;28;20046;-69
2023/01/02 00:09:17;;;;;;;0.50;0.50;;;;;;;;;;4974416;28;20053;-70
2023/01/02 00:11:42;;;;;;;1.80;0.80;;;;;;;;;;4958292;28;20099;-70
2023/01/02 00:14:08;;;;;;;1.00;0.60;;;;;;;;;;4958576;28;20093;-70
2023/01/02 00:16:33;;;;;;;0.70;0.60;;;;;;;;;;4958511;28;20120;-70
2023/01/02 00:18:59;;;;;;;1.92;0.77;;;;;;;;;;4957810;28;20034;-70
2023/01/02 00:21:25;;;;;;;3.25;0.90;;;;;;;;;;4956621;28;20038;-69
2023/01/02 00:23:50;;;;;;;1.10;0.80;;;;;;;;;;4956931;28;20070;-68
2023/01/02 00:26:16;;;;;;;1.00;0.90;;;;;;;;;;4973256;28;20532;-68
2023/01/02 00:28:41;;;;;;;1.45;0.90;;;;;;;;;;4972867;28;20077;-68
2023/01/02 00:31:08;;;;;;;0.88;0.80;;;;;;;;;;4957234;28;20023;-69
2023/01/02 00:33:34;;;;;;;1.13;0.88;;;;;;;;;;4957250;28;20053;-68
2023/01/02 00:36:02;;;;;;;0.50;0.50;;;;;;;;;;4973689;28;20038;-68
2023/01/02 00:38:28;;;;;;;0.88;0.68;;;;;;;;;;4957668;28;20125;-69
2023/01/02 00:40:53;;;;;;;0.70;0.70;;;;;;;;;;4973797;28;20189;-68
2023/01/02 00:43:19;;;;;;;1.25;0.82;;;;;;;;;;4972541;28;20129;-68
2023/01/02 00:45:47;;;;;;;0.98;0.88;;;;;;;;;;4971524;28;20054;-67
2023/01/02 00:48:13;;;;;;;0.70;0.70;;;;;;;;;;4971339;28;20129;-68
2023/01/02 00:50:38;;;;;;;0.70;0.70;;;;;;;;;;4972045;28;20034;-69
2023/01/02 00:53:04;;;;;;;1.48;0.80;;;;;;;;;;4955546;28;20457;-68
2023/01/02 00:55:30;;;;;;;0.95;0.60;;;;;;;;;;4972203;28;20476;-67
2023/01/02 00:57:56;;;;;;;0.85;0.80;;;;;;;;;;4956393;28;20046;-68
2023/01/02 01:00:21;;;;;;;1.08;0.80;;;;;;;;;;4941662;28;20389;-69
2023/01/02 01:02:47;;;;;;;0.70;0.70;;;;;;;;;;4973564;28;20389;-68
2023/01/02 01:05:13;;;;;;;0.70;0.70;;;;;;;;;;4957246;28;20065;-69
2023/01/02 01:07:38;;;;;;;0.88;0.88;;;;;;;;;;4974219;28;20038;-68
2023/01/02 01:10:05;;;;;;;0.60;0.60;;;;;;;;;;4974412;28;20150;-69
2023/01/02 01:12:31;;;;;;;0.75;0.75;;;;;;;;;;4957198;28;20035;-69
2023/01/02 01:14:57;;;;;;;2.38;1.00;;;;;;;;;;4973137;28;20042;-68
2023/01/02 01:17:22;;;;;;;0.77;0.70;;;;;;;;;;4972849;28;20077;-68
2023/01/02 01:19:48;;;;;;;0.70;0.70;;;;;;;;;;4974399;28;20043;-68
2023/01/02 01:22:13;;;;;;;0.82;0.82;;;;;;;;;;4957054;28;20420;-68
2023/01/02 01:24:39;;;;;;;0.73;0.73;;;;;;;;;;4973429;28;20045;-69
2023/01/02 01:27:05;;;;;;;1.25;0.90;;;;;;;;;;4973674;28;20109;-69
2023/01/02 01:29:30;;;;;;;0.88;0.88;;;;;;;;;;4974024;28;20414;-69
2023/01/02 01:31:56;;;;;;;1.13;1.02;;;;;;;;;;4972955;28;20559;-68
2023/01/02 01:34:21;;;;;;;0.88;0.88;;;;;;;;;;4957035;28;20367;-68
2023/01/02 01:36:47;;;;;;;0.73;0.73;;;;;;;;;;4956840;28;20037;-68
2023/01/02 01:39:12;;;;;;;1.05;0.80;;;;;;;;;;4956985;28;20043;-68
2023/01/02 01:41:38;;;;;;;1.38;1.10;;;;;;;;;;4941388;28;20177;-68
2023/01/02 01:44:22;;;;;;;0.77;0.77;;;;;;;;;;4956780;28;20101;-68
2023/01/02 01:46:48;;;;;;;0.80;0.80;;;;;;;;;;4956629;28;20046;-68
2023/01/02 01:49:20;;;;;;;1.25;1.00;;;;;;;;;;4956552;28;20066;-68
2023/01/02 01:51:50;;;;;;;0.77;0.77;;;;;;;;;;4972982;28;20054;-67
2023/01/02 01:54:18;;;;;;;0.70;0.70;;;;;;;;;;4956556;28;20062;-68
2023/01/02 01:56:46;;;;;;;1.00;0.70;;;;;;;;;;4956984;28;20043;-68
2023/01/02 01:59:12;;;;;;;0.77;0.77;;;;;;;;;;4972543;28;20471;-68
2023/01/02 02:01:39;;;;;;;1.17;0.90;;;;;;;;;;4972313;28;20501;-68
2023/01/02 02:04:05;;;;;;;0.80;0.80;;;;;;;;;;4972584;28;20070;-70
2023/01/02 02:06:30;;;;;;;2.45;1.08;;;;;;;;;;4972389;28;20128;-70
2023/01/02 02:09:10;;;;;;;1.80;0.90;;;;;;;;;;4973274;28;20054;-68
2023/01/02 02:11:35;;;;;;;1.10;1.00;;;;;;;;;;4973258;28;20798;-67
2023/01/02 02:14:01;;;;;;;0.70;0.70;;;;;;;;;;4956293;28;20257;-68
2023/01/02 02:16:32;;;;;;;0.70;0.70;;;;;;;;;;4972008;28;20042;-68
2023/01/02 02:19:09;;;;;;;1.05;0.98;;;;;;;;;;4972060;28;20137;-68
2023/01/02 02:21:55;;;;;;;0.98;0.93;;;;;;;;;;4956282;28;20038;-68
2023/01/02 02:24:39;;;;;;;0.60;0.60;;;;;;;;;;4955882;28;20034;-68
2023/01/02 02:27:23;;;;;;;0.95;0.80;;;;;;;;;;4955734;28;20039;-67
2023/01/02 02:29:49;;;;;;;1.00;0.68;;;;;;;;;;4972035;28;20042;-67
2023/01/02 02:32:14;;;;;;;0.70;0.70;;;;;;;;;;4972399;28;20401;-67
2023/01/02 02:35:04;;;;;;;1.30;0.57;;;;;;;;;;4972137;28;20046;-68
2023/01/02 02:37:29;;;;;;;0.63;0.60;;;;;;;;;;4955857;28;20045;-69
2023/01/02 02:40:09;;;;;;;0.60;0.60;;;;;;;;;;4971920;28;20051;-68
2023/01/02 02:42:38;;;;;;;0.60;0.60;;;;;;;;;;4955827;28;20039;-67
2023/01/02 02:45:07;;;;;;;0.50;0.50;;;;;;;;;;4955660;28;20427;-68
2023/01/02 02:47:37;;;;;;;0.60;0.60;;;;;;;;;;4955754;28;20425;-68
2023/01/02 02:50:11;;;;;;;0.65;0.65;;;;;;;;;;4955531;28;20050;-70
2023/01/02 02:52:45;;;;;;;0.73;0.55;;;;;;;;;;4972860;28;20074;-68
2023/01/02 02:55:17;;;;;;;0.50;0.50;;;;;;;;;;4955842;28;20042;-67
2023/01/02 02:57:44;;;;;;;0.60;0.60;;;;;;;;;;4972232;28;20055;-67
2023/01/02 03:00:12;;;;;;;1.52;0.50;;;;;;;;;;4939784;28;20030;-68
2023/01/02 03:02:37;;;;;;;0.50;0.50;;;;;;;;;;4972096;28;20039;-67
2023/01/02 03:05:05;;;;;;;1.00;0.60;;;;;;;;;;4973010;28;20046;-66
2023/01/02 03:07:34;;;;;;;0.47;0.47;;;;;;;;;;4971561;28;20043;-66
2023/01/02 03:10:18;;;;;;;0.50;0.50;;;;;;;;;;4955695;28;20480;-66
2023/01/02 03:12:50;;;;;;;1.85;0.50;;;;;;;;;;4955892;28;20141;-66
2023/01/02 03:15:23;;;;;;;0.55;0.50;;;;;;;;;;4971956;28;20038;-66
2023/01/02 03:18:04;;;;;;;1.33;0.55;;;;;;;;;;4972205;28;20042;-66
2023/01/02 03:20:37;;;;;;;0.82;0.40;;;;;;;;;;4971479;28;20035;-66
2023/01/02 03:23:04;;;;;;;0.55;0.50;;;;;;;;;;4971463;28;20062;-66
2023/01/02 03:25:32;;;;;;;0.52;0.52;;;;;;;;;;4972505;28;20117;-65
2023/01/02 03:27:59;;;;;;;0.50;0.50;;;;;;;;;;4956356;28;20576;-67
2023/01/02 03:30:24;;;;;;;0.60;0.60;;;;;;;;;;4959077;28;20066;-66
2023/01/02 03:32:50;;;;;;;0.55;0.55;;;;;;;;;;4976189;28;20450;-66
2023/01/02 03:35:18;;;;;;;0.60;0.60;;;;;;;;;;4958891;28;20035;-66
2023/01/02 03:37:47;;;;;;;0.50;0.50;;;;;;;;;;4975150;28;20125;-68
2023/01/02 03:40:16;;;;;;;0.50;0.50;;;;;;;;;;4976010;28;20035;-67
2023/01/02 03:42:44;;;;;;;0.60;0.60;;;;;;;;;;4994338;28;20038;-68
2023/01/02 03:45:10;;;;;;;0.80;0.80;;;;;;;;;;4994381;28;20069;-66
2023/01/02 03:47:45;;;;;;;0.55;0.55;;;;;;;;;;4978053;28;20074;-67
2023/01/02 03:50:14;;;;;;;0.67;0.67;;;;;;;;;;4995162;28;20042;-67
2023/01/02 03:52:39;;;;;;;0.70;0.70;;;;;;;;;;4991046;28;20474;-67
2023/01/02 03:55:06;;;;;;;2.38;0.60;;;;;;;;;;4984743;28;20049;-66
2023/01/02 03:57:34;;;;;;;0.77;0.77;;;;;;;;;;4976581;28;20114;-66
2023/01/02 04:00:05;;;;;;;0.70;0.70;;;;;;;;;;4984163;28;20046;-67
2023/01/02 04:02:50;;;;;;;0.77;0.77;;;;;;;;;;4959267;28;20034;-67
2023/01/02 04:05:52;;;;;;;3.03;0.98;;;;;;;;;;4974556;28;20047;-66
2023/01/02 04:08:29;;;;;;;0.77;0.77;;;;;;;;;;4903927;29;20055;-67
2023/01/02 04:10:56;;;;;;;2.50;1.20;;;;;;;;;;4967104;28;20488;-65
2023/01/02 04:13:45;;;;;;;3.17;1.20;;;;;;;;;;4958979;28;20041;-65
2023/01/02 04:16:14;;;;;;;1.83;1.10;;;;;;;;;;4969081;28;20046;-65
2023/01/02 04:18:46;;;;;;;2.37;0.90;;;;;;;;;;4958121;28;20049;-65
2023/01/02 04:21:14;;;;;;;1.97;1.10;;;;;;;;;;4957854;28;20035;-66
2023/01/02 04:23:41;;;;;;;0.80;0.80;;;;;;;;;;4974197;28;20035;-66
2023/01/02 04:26:15;;;;;;;2.00;1.00;;;;;;;;;;4974955;28;20393;-66
2023/01/02 04:28:41;;;;;;;2.70;0.80;;;;;;;;;;4973836;28;20493;-67
2023/01/02 04:31:16;;;;;;;1.17;0.67;;;;;;;;;;4957415;28;20038;-65
2023/01/02 04:33:48;;;;;;;0.60;0.60;;;;;;;;;;4941821;28;20081;-65
2023/01/02 04:36:14;;;;;;;0.80;0.80;;;;;;;;;;4973750;28;20049;-67
2023/01/02 04:38:43;;;;;;;0.80;0.80;;;;;;;;;;4973572;28;20031;-66
2023/01/02 04:41:11;;;;;;;1.33;0.80;;;;;;;;;;4974257;28;20114;-65
2023/01/02 04:43:36;;;;;;;3.53;1.17;;;;;;;;;;4957549;28;20047;-65
2023/01/02 04:46:02;;;;;;;0.80;0.80;;;;;;;;;;4957464;28;20124;-68
2023/01/02 04:48:28;;;;;;;1.50;1.10;;;;;;;;;;4941421;28;20535;-67
2023/01/02 04:50:54;;;;;;;4.57;1.47;;;;;;;;;;4941644;28;20049;-68
2023/01/02 04:53:19;;;;;;;1.80;1.10;;;;;;;;;;4973655;28;20110;-67
2023/01/02 04:55:45;;;;;;;1.80;1.00;;;;;;;;;;4957400;28;20042;-67
2023/01/02 04:58:11;;;;;;;3.83;1.80;;;;;;;;;;4957085;28;20035;-67
2023/01/02 05:00:36;;;;;;;4.73;1.60;;;;;;;;;;4957324;28;20117;-67
2023/01/02 05:03:02;;;;;;;3.37;1.47;;;;;;;;;;4972964;28;20042;-67
2023/01/02 05:05:28;;;;;;;3.20;1.60;;;;;;;;;;4972996;28;20049;-66
2023/01/02 05:07:54;;;;;;;4.73;1.57;;;;;;;;;;4956944;28;20038;-67
2023/01/02 05:10:19;;;;;;;5.20;2.40;;;;;;;;;;4957019;28;20098;-67
2023/01/02 05:12:45;;;;;;;1.97;1.30;;;;;;;;;;4974154;28;20243;-67
2023/01/02 05:15:11;;;;;;;2.27;1.60;;;;;;;;;;4957058;28;20038;-67
2023/01/02 05:17:37;;;;;;;3.17;1.00;;;;;;;;;;4972923;28;20129;-67
2023/01/02 05:20:07;;;;;;;1.80;1.10;;;;;;;;;;4957290;28;20050;-67
2023/01/02 05:25:17;;;;;;;4.27;1.30;;;;;;;;;;4973700;28;20046;-67
2023/01/02 05:27:44;;;;;;;3.33;1.20;;;;;;;;;;4972921;28;20047;-66
2023/01/02 05:30:10;;;;;;;1.37;0.90;;;;;;;;;;4956877;28;20110;-67
2023/01/02 05:32:36;;;;;;;2.73;0.80;;;;;;;;;;4972758;28;20042;-66
2023/01/02 05:35:04;;;;;;;1.97;1.00;;;;;;;;;;4956558;28;20033;-67
2023/01/02 05:37:29;;;;;;;3.70;1.20;;;;;;;;;;4973622;28;20047;-67
2023/01/02 05:39:55;;;;;;;1.03;0.83;;;;;;;;;;4956846;28;20096;-66
2023/01/02 05:42:20;;;;;;;1.70;1.00;;;;;;;;;;4956566;28;20096;-67
2023/01/02 05:44:48;;;;;;;2.23;1.43;;;;;;;;;;4956608;28;20041;-67
2023/01/02 05:47:13;;;;;;;1.23;1.00;;;;;;;;;;4955761;28;20042;-67
2023/01/02 05:49:39;;;;;;;1.03;0.97;;;;;;;;;;4956291;28;20377;-66
2023/01/02 05:52:04;;;;;;;1.07;0.90;;;;;;;;;;4971455;28;20413;-67
2023/01/02 05:54:30;;;;;;;0.80;0.80;;;;;;;;;;4956199;28;20390;-67
2023/01/02 05:56:56;;;;;;;1.10;0.80;;;;;;;;;;4956329;28;20046;-66
2023/01/02 05:59:21;;;;;;;3.20;1.13;;;;;;;;;;4972163;28;20102;-66
2023/01/02 06:01:47;;;;;;;2.10;1.00;;;;;;;;;;4956020;28;20039;-66
2023/01/02 06:04:12;;;;;;;0.87;0.83;;;;;;;;;;4973161;28;20117;-66
2023/01/02 06:06:39;;;;;;;1.10;0.80;;;;;;;;;;4956312;28;20042;-66
2023/01/02 06:09:06;;;;;;;0.83;0.83;;;;;;;;;;4940064;28;20149;-66
2023/01/02 06:11:32;;;;;;;2.50;1.00;;;;;;;;;;4955679;28;20549;-66
2023/01/02 06:13:57;;;;;;;1.90;1.33;;;;;;;;;;4956524;28;20121;-66
2023/01/02 06:16:23;;;;;;;1.03;0.80;;;;;;;;;;4956304;28;20030;-66
2023/01/02 06:18:49;;;;;;;3.47;0.90;;;;;;;;;;4972196;28;20145;-67
2023/01/02 06:21:16;;;;;;;1.73;1.10;;;;;;;;;;4956155;28;20055;-66
2023/01/02 06:23:42;;;;;;;1.17;0.90;;;;;;;;;;4971593;28;20473;-67
2023/01/02 06:26:09;;;;;;;4.13;0.90;;;;;;;;;;4971469;28;20122;-66
2023/01/02 06:28:35;;;;;;;2.70;1.00;;;;;;;;;;4972020;28;20046;-69
2023/01/02 06:31:02;;;;;;;1.00;0.90;;;;;;;;;;4956055;28;20041;-70
2023/01/02 06:33:28;;;;;;;0.80;0.80;;;;;;;;;;4940518;28;20035;-73
2023/01/02 06:35:57;;;;;;;1.73;1.00;;;;;;;;;;4955651;28;20117;-69
2023/01/02 06:38:23;;;;;;;3.37;1.57;;;;;;;;;;4973005;28;20089;-68
2023/01/02 06:40:56;;;;;;;3.17;1.17;;;;;;;;;;4971761;28;20027;-68
2023/01/02 06:43:22;;;;;;;4.83;1.07;;;;;;;;;;4971951;28;20042;-68
2023/01/02 06:45:48;;;;;;;1.57;1.03;;;;;;;;;;4971000;28;20082;-66
2023/01/02 06:48:13;;;;;;;1.70;0.90;;;;;;;;;;4972306;28;20054;-68
2023/01/02 06:50:39;;;;;;;2.50;1.40;;;;;;;;;;4955535;28;20117;-71
2023/01/02 06:53:04;;;;;;;3.30;1.30;;;;;;;;;;4939058;28;20058;-70
2023/01/02 06:55:30;;;;;;;1.53;1.20;;;;;;;;;;4972288;28;20034;-70
2023/01/02 06:57:56;;;;;;;4.47;1.30;;;;;;;;;;4971962;28;20129;-69
2023/01/02 07:00:21;;;;;;;1.90;1.00;;;;;;;;;;4955612;28;20034;-69
2023/01/02 07:02:47;;;;;;;3.95;1.00;;;;;;;;;;4956182;28;20108;-69
2023/01/02 07:05:13;;;;;;;2.92;1.10;;;;;;;;;;4975617;28;20046;-71
2023/01/02 07:07:38;;;;;;;2.20;1.10;;;;;;;;;;4975479;28;20499;-69
2023/01/02 07:10:04;;;;;;;2.83;1.13;;;;;;;;;;4975454;28;20366;-70
2023/01/02 07:12:30;;;;;;;2.03;1.05;;;;;;;;;;4976499;28;20046;-70
2023/01/02 07:14:55;;;;;;;3.00;0.93;;;;;;;;;;4976380;28;20057;-71
2023/01/02 07:17:21;;;;;;;1.67;0.98;;;;;;;;;;4975776;28;20404;-71
2023/01/02 07:19:46;;;;;;;3.15;1.10;;;;;;;;;;4958982;28;20041;-70
2023/01/02 07:22:12;;;;;;;1.60;0.90;;;;;;;;;;4975324;28;20057;-71
2023/01/02 07:24:38;;;;;;;2.38;1.00;;;;;;;;;;4958916;28;20034;-68
2023/01/02 07:27:03;;;;;;;3.30;1.10;;;;;;;;;;4958796;28;20116;-70
2023/01/02 07:29:29;;;;;;;2.95;1.25;;;;;;;;;;4974963;28;20081;-66
2023/01/02 07:31:54;;;;;;;1.38;1.00;;;;;;;;;;4976008;28;20069;-68
2023/01/02 07:34:20;;;;;;;2.47;1.00;;;;;;;;;;4958844;28;20041;-65
2023/01/02 07:36:45;;;;;;;2.30;0.90;;;;;;;;;;4958721;28;20194;-67
2023/01/02 07:39:11;;;;;;;1.30;0.73;;;;;;;;;;4974574;28;20030;-68
2023/01/02 07:41:36;;;;;;;1.23;0.73;;;;;;;;;;4974583;28;20043;-69
2023/01/02 07:44:12;;;;;;;2.17;0.77;;;;;;;;;;4958488;28;20535;-67
2023/01/02 07:46:37;;;;;;;1.33;0.90;;;;;;;;;;4958651;28;20043;-74
2023/01/02 07:49:03;;;;;;;2.17;0.70;;;;;;;;;;4977643;28;20469;-77
2023/01/02 07:51:30;;;;;;;2.30;0.80;;;;;;;;;;4980517;28;20113;-78
2023/01/02 07:54:05;;;;;;;2.10;0.93;;;;;;;;;;4960255;28;20476;-73
2023/01/02 07:56:33;;;;;;;1.42;0.80;;;;;;;;;;4969661;28;20042;-77
2023/01/02 07:59:00;;;;;;;1.05;0.70;;;;;;;;;;4984522;28;20035;-77
2023/01/02 08:01:25;;;;;;;0.80;0.70;;;;;;;;;;4970317;28;20133;-76
2023/01/02 08:03:51;;;;;;;1.00;0.90;;;;;;;;;;4983703;28;20060;-76
2023/01/02 08:06:17;;;;;;;1.73;1.08;;;;;;;;;;4992946;28;20051;-76
2023/01/02 08:08:42;;;;;;;2.03;0.90;;;;;;;;;;4951247;28;20130;-77
2023/01/02 08:11:09;;;;;;;1.38;0.80;;;;;;;;;;4963306;28;20430;-79
2023/01/02 08:13:35;;;;;;;1.38;0.80;;;;;;;;;;4982223;28;20117;-72
2023/01/02 08:16:05;;;;;;;2.35;1.00;;;;;;;;;;4957699;28;20125;-76
2023/01/02 08:18:31;;;;;;;2.42;1.00;;;;;;;;;;4974812;28;20488;-76
2023/01/02 08:20:56;;;;;;;1.98;1.23;;;;;;;;;;4958220;28;20034;-74
2023/01/02 08:23:24;;;;;;;3.22;1.40;;;;;;;;;;4959508;28;20042;-76
2023/01/02 08:25:50;;;;;;;4.85;1.63;;;;;;;;;;4949942;28;20038;-79
2023/01/02 08:28:15;;;;;;;2.88;1.30;;;;;;;;;;4981047;28;20116;-75
2023/01/02 08:30:41;;;;;;;3.88;1.98;;;;;;;;;;4984469;28;20093;-75
2023/01/02 08:33:06;;;;;;;2.38;1.60;;;;;;;;;;4982446;28;20121;-73
2023/01/02 08:35:32;;;;;;;2.75;1.60;;;;;;;;;;4974857;28;20133;-78
2023/01/02 08:37:57;;;;;;;1.70;1.20;;;;;;;;;;4975006;28;20081;-74
2023/01/02 08:40:23;;;;;;;1.70;1.25;;;;;;;;;;4981341;28;20058;-75
2023/01/02 08:42:49;;;;;;;3.22;1.42;;;;;;;;;;4966164;28;20046;-76
2023/01/02 08:45:15;;;;;;;5.80;1.40;;;;;;;;;;4983268;28;20038;-73
2023/01/02 08:47:41;;;;;;;1.25;0.85;;;;;;;;;;4981685;28;20038;-75
2023/01/02 08:50:07;;;;;;;1.60;1.10;;;;;;;;;;4951518;28;20041;-70
2023/01/02 08:52:32;;;;;;;1.98;1.00;;;;;;;;;;4982716;28;20066;-73
2023/01/02 08:54:59;;;;;;;1.27;0.90;;;;;;;;;;4982193;28;20070;-74
2023/01/02 08:57:25;;;;;;;1.73;1.10;;;;;;;;;;4978477;28;20555;-75
2023/01/02 08:59:51;;;;;;;3.42;1.15;;;;;;;;;;4982992;28;20113;-68
2023/01/02 09:02:16;;;;;;;1.75;0.90;;;;;;;;;;4983609;28;20134;-72
2023/01/02 09:04:42;;;;;;;1.10;0.80;;;;;;;;;;4973348;28;20169;-82
2023/01/02 09:07:07;;;;;;;1.55;0.80;;;;;;;;;;4942297;28;20469;-75
2023/01/02 09:09:33;;;;;;;1.58;1.10;;;;;;;;;;4974021;28;20057;-78
2023/01/02 09:11:59;;;;;;;1.60;0.90;;;;;;;;;;4962936;28;20035;-76
2023/01/02 09:14:24;;;;;;;2.35;0.90;;;;;;;;;;4980766;28;20369;-78
2023/01/02 09:16:50;;;;;;;2.20;0.80;;;;;;;;;;4966811;28;20096;-82
2023/01/02 09:19:16;;;;;;;1.65;1.20;;;;;;;;;;4982634;28;20041;-76
2023/01/02 09:21:42;;;;;;;1.90;1.02;;;;;;;;;;4987659;28;20196;-79
2023/01/02 09:24:07;;;;;;;2.08;1.00;;;;;;;;;;4986544;28;20033;-73
2023/01/02 09:26:34;;;;;;;1.40;0.98;;;;;;;;;;4984190;28;20523;-78
2023/01/02 09:29:00;;;;;;;2.53;1.50;;;;;;;;;;4981199;28;20046;-82
2023/01/02 09:31:25;;;;;;;1.75;0.90;;;;;;;;;;4981677;28;20038;-73
2023/01/02 09:33:53;;;;;;;1.45;1.00;;;;;;;;;;4966083;28;20121;-74
2023/01/02 09:36:19;;;;;;;1.60;0.90;;;;;;;;;;4980573;28;20046;-72
2023/01/02 09:38:56;;;;;;;2.28;1.08;;;;;;;;;;4964933;28;20038;-73
2023/01/02 09:41:25;;;;;;;2.30;1.00;;;;;;;;;;4942456;28;20026;-74
2023/01/02 09:43:54;;;;;;;3.40;1.20;;;;;;;;;;4980855;28;20031;-76
2023/01/02 09:46:39;;;;;;;2.45;1.05;;;;;;;;;;4959915;28;20040;-75
2023/01/02 09:49:06;;;;;;;1.13;0.90;;;;;;;;;;4923362;28;20056;-73
2023/01/02 09:51:33;;;;;;;1.77;1.10;;;;;;;;;;4972222;28;20050;-80
2023/01/02 09:53:59;;;;;;;5.03;1.48;;;;;;;;;;4979842;28;20085;-76
2023/01/02 09:56:32;;;;;;;1.55;1.10;;;;;;;;;;4965245;28;20038;-75
2023/01/02 09:59:17;;;;;;;2.35;1.13;;;;;;;;;;4982608;28;20444;-75
2023/01/02 10:01:58;;;;;;;3.75;1.27;;;;;;;;;;4972219;28;20045;-77
2023/01/02 10:04:47;;;;;;;2.38;1.25;;;;;;;;;;4991913;28;20078;-78
2023/01/02 10:07:19;;;;;;;2.35;1.10;;;;;;;;;;4975327;28;20096;-79
2023/01/02 10:09:44;;;;;;;2.03;1.10;;;;;;;;;;4975400;28;20042;-74
2023/01/02 10:12:22;;;;;;;1.77;0.93;;;;;;;;;;4952535;28;20034;-77
2023/01/02 10:14:59;;;;;;;1.60;1.05;;;;;;;;;;4972450;28;20042;-76
2023/01/02 10:17:27;;;;;;;1.45;0.77;;;;;;;;;;4972393;28;20097;-75
2023/01/02 10:19:57;;;;;;;3.97;1.30;;;;;;;;;;4955925;28;20434;-75
2023/01/02 10:22:35;;;;;;;2.38;0.90;;;;;;;;;;4972986;28;20039;-80
2023/01/02 10:25:03;;;;;;;1.83;1.05;;;;;;;;;;4973694;28;20034;-74
2023/01/02 10:27:34;;;;;;;2.35;1.15;;;;;;;;;;4973495;28;20052;-78
2023/01/02 10:30:06;;;;;;;1.05;0.90;;;;;;;;;;4954079;28;20045;-76
2023/01/02 10:32:34;;;;;;;2.45;1.13;;;;;;;;;;4937759;28;20041;-76
2023/01/02 10:35:05;;;;;;;1.38;0.90;;;;;;;;;;4975883;28;20082;-73
2023/01/02 10:37:31;;;;;;;1.20;0.95;;;;;;;;;;4961860;28;20038;-73
2023/01/02 10:39:57;;;;;;;2.55;1.08;;;;;;;;;;4966789;28;20093;-73
2023/01/02 10:42:23;;;;;;;2.85;1.25;;;;;;;;;;4951520;28;20049;-73
2023/01/02 10:44:54;;;;;;;2.13;1.17;;;;;;;;;;4966287;28;20117;-73
2023/01/02 10:47:20;;;;;;;6.75;2.60;;;;;;;;;;4984389;28;20042;-72
2023/01/02 10:49:46;;;;;;;2.35;1.10;;;;;;;;;;4960115;28;20076;-72
2023/01/02 10:52:21;;;;;;;2.60;1.20;;;;;;;;;;4976795;28;20059;-73
2023/01/02 10:54:54;;;;;;;3.10;0.90;;;;;;;;;;4976738;28;20034;-76
2023/01/02 10:57:23;;;;;;;2.30;0.90;;;;;;;;;;4959739;28;20066;-77
2023/01/02 10:59:57;;;;;;;3.65;1.10;;;;;;;;;;4959783;28;20141;-77
2023/01/02 11:02:27;;;;;;;1.13;0.93;;;;;;;;;;4959705;28;20045;-76
2023/01/02 11:04:57;;;;;;;2.88;1.00;;;;;;;;;;4943572;28;20045;-75
2023/01/02 11:07:24;;;;;;;5.85;2.90;;;;;;;;;;4975595;28;20116;-79
2023/01/02 11:09:55;;;;;;;4.38;2.22;;;;;;;;;;4959495;28;20051;-77
2023/01/02 11:12:22;;;;;;;4.25;2.00;;;;;;;;;;4959706;28;20035;-84
2023/01/02 11:14:47;;;;;;;3.33;1.80;;;;;;;;;;4976245;28;20054;-77
2023/01/02 11:17:15;;;;;;;3.80;2.40;;;;;;;;;;4960529;28;20466;-77
2023/01/02 11:19:42;;;;;;;3.83;1.10;;;;;;;;;;4975558;28;20046;-76
2023/01/02 11:22:09;;;;;;;4.60;1.10;;;;;;;;;;4965574;28;20037;-80
2023/01/02 11:24:44;;;;;;;7.45;3.53;;;;;;;;;;4995649;28;20053;-78
2023/01/02 11:27:09;;;;;;;2.45;1.13;;;;;;;;;;4975858;28;20041;-81
2023/01/02 11:29:35;;;;;;;2.75;1.10;;;;;;;;;;4976217;28;20141;-80
2023/01/02 11:32:02;;;;;;;3.65;1.90;;;;;;;;;;4976938;28;20035;-82
2023/01/02 11:34:39;;;;;;;2.15;1.15;;;;;;;;;;4963150;28;20038;-81
2023/01/02 11:37:13;;;;;;;2.75;1.17;;;;;;;;;;4992656;28;20050;-79
2023/01/02 11:39:39;;;;;;;2.38;1.10;;;;;;;;;;4980894;28;20045;-82
2023/01/02 11:44:52;;;;;;;2.47;1.40;;;;;;;;;;4980066;28;20178;-82
2023/01/02 11:47:19;;;;;;;3.72;1.02;;;;;;;;;;4964780;28;20063;-82
2023/01/02 11:49:47;;;;;;;1.45;0.98;;;;;;;;;;4979234;28;20472;-82
2023/01/02 11:52:15;;;;;;;2.83;1.10;;;;;;;;;;4996632;28;20109;-82
2023/01/02 11:54:48;;;;;;;0.95;0.90;;;;;;;;;;4996955;28;20046;-83
2023/01/02 11:57:34;;;;;;;3.65;1.20;;;;;;;;;;4996590;28;20034;-82
2023/01/02 12:00:02;;;;;;;4.13;1.00;;;;;;;;;;4960254;28;20116;-82
2023/01/02 12:02:43;;;;;;;1.75;0.82;;;;;;;;;;4981385;28;20034;-83
2023/01/02 12:05:13;;;;;;;2.63;1.02;;;;;;;;;;4981551;28;20038;-82
2023/01/02 12:07:42;;;;;;;2.53;0.90;;;;;;;;;;4979907;28;20042;-83
2023/01/02 12:10:12;;;;;;;2.17;1.33;;;;;;;;;;4963746;28;20077;-83
2023/01/02 12:12:42;;;;;;;3.42;1.23;;;;;;;;;;4995927;28;20034;-84
2023/01/02 12:15:11;;;;;;;2.85;1.33;;;;;;;;;;4984660;28;20467;-84
2023/01/02 12:17:36;;;;;;;5.85;2.50;;;;;;;;;;4975216;28;20037;-83
2023/01/02 12:20:05;;;;;;;4.05;1.80;;;;;;;;;;4976396;28;20070;-78
2023/01/02 12:22:40;;;;;;;5.93;2.55;;;;;;;;;;4992325;28;20046;-83
2023/01/02 12:25:07;;;;;;;4.43;1.80;;;;;;;;;;5009221;28;20045;-82
2023/01/02 12:27:32;;;;;;;2.75;1.70;;;;;;;;;;4991534;28;20030;-82
2023/01/02 12:30:07;;;;;;;4.57;2.05;;;;;;;;;;4966998;28;20364;-83
2023/01/02 12:32:37;;;;;;;2.92;1.63;;;;;;;;;;4965688;28;20065;-83
2023/01/02 12:35:02;;;;;;;4.68;2.80;;;;;;;;;;4980796;28;20049;-82
2023/01/02 12:37:32;;;;;;;3.35;1.77;;;;;;;;;;4997629;28;20092;-82
2023/01/02 12:40:16;;;;;;;2.40;1.30;;;;;;;;;;4963532;28;20049;-81
2023/01/02 12:43:01;;;;;;;3.85;1.83;;;;;;;;;;4965400;28;20042;-83
2023/01/02 12:45:38;;;;;;;3.78;1.70;;;;;;;;;;4980502;28;20495;-82
2023/01/02 12:48:13;;;;;;;5.22;2.10;;;;;;;;;;4978957;28;20042;-82
2023/01/02 12:50:51;;;;;;;3.63;1.90;;;;;;;;;;4980240;28;20034;-83
2023/01/02 12:53:26;;;;;;;5.55;1.40;;;;;;;;;;4997046;28;20081;-81
2023/01/02 12:55:58;;;;;;;3.40;1.90;;;;;;;;;;4964451;28;20030;-82
2023/01/02 12:58:30;;;;;;;4.22;1.63;;;;;;;;;;4979633;28;20030;-82
2023/01/02 13:00:56;;;;;;;4.67;1.63;;;;;;;;;;4979278;28;20039;-81
2023/01/02 13:03:22;;;;;;;3.20;1.30;;;;;;;;;;4967268;28;20049;-82
2023/01/02 13:06:06;;;;;;;4.73;1.63;;;;;;;;;;4966846;28;20034;-81
2023/01/02 13:08:41;;;;;;;5.57;1.40;;;;;;;;;;4982474;28;20046;-82
2023/01/02 13:11:07;;;;;;;5.63;1.90;;;;;;;;;;4981535;28;20455;-83
2023/01/02 13:13:37;;;;;;;5.55;1.70;;;;;;;;;;5000217;28;20064;-83
2023/01/02 13:16:09;;;;;;;3.83;1.57;;;;;;;;;;4998490;28;20046;-82
2023/01/02 13:18:50;;;;;;;3.23;1.90;;;;;;;;;;4998198;28;20053;-81
2023/01/02 13:21:21;;;;;;;3.23;1.50;;;;;;;;;;4980901;28;20057;-76
2023/01/02 13:23:47;;;;;;;6.15;1.50;;;;;;;;;;4996231;28;20046;-76
2023/01/02 13:26:17;;;;;;;4.33;1.50;;;;;;;;;;4962915;28;20128;-81
2023/01/02 13:28:52;;;;;;;3.53;1.20;;;;;;;;;;4978623;28;20049;-83
2023/01/02 13:31:21;;;;;;;4.80;1.50;;;;;;;;;;4980195;28;20041;-80
2023/01/02 13:33:49;;;;;;;3.80;1.53;;;;;;;;;;4998401;28;20057;-75
2023/01/02 13:36:25;;;;;;;3.23;1.60;;;;;;;;;;4983240;28;20042;-83
2023/01/02 13:38:53;;;;;;;3.17;1.63;;;;;;;;;;4997691;28;20064;-82
2023/01/02 13:41:19;;;;;;;4.07;1.63;;;;;;;;;;4995169;28;20062;-82
2023/01/02 13:43:48;;;;;;;3.33;2.17;;;;;;;;;;4981459;28;20606;-83
2023/01/02 13:46:19;;;;;;;2.60;1.60;;;;;;;;;;4983311;28;20038;-83
2023/01/02 13:48:45;;;;;;;5.73;1.40;;;;;;;;;;4980737;28;20046;-82
2023/01/02 13:51:13;;;;;;;4.33;1.67;;;;;;;;;;4995381;28;20058;-83
2023/01/02 13:53:48;;;;;;;1.70;1.37;;;;;;;;;;4965292;28;20038;-84
2023/01/02 13:56:17;;;;;;;6.20;1.60;;;;;;;;;;4979943;28;20030;-83
2023/01/02 13:58:46;;;;;;;5.77;2.10;;;;;;;;;;4995833;28;20042;-83
2023/01/02 14:01:21;;;;;;;5.83;2.03;;;;;;;;;;4962969;28;20540;-83
2023/01/02 14:03:47;;;;;;;2.00;1.30;;;;;;;;;;4980309;28;20137;-83
2023/01/02 14:06:28;;;;;;;5.03;1.33;;;;;;;;;;4963939;28;20591;-83
2023/01/02 14:09:03;;;;;;;2.97;1.97;;;;;;;;;;4981144;28;20038;-84
2023/01/02 14:11:40;;;;;;;1.63;1.47;;;;;;;;;;4997115;28;20112;-83
2023/01/02 14:14:14;;;;;;;4.07;1.30;;;;;;;;;;4997008;28;20054;-83
2023/01/02 14:16:40;;;;;;;1.93;1.37;;;;;;;;;;4998439;28;20034;-82
2023/01/02 14:19:12;;;;;;;3.83;1.40;;;;;;;;;;4995380;28;20053;-83
2023/01/02 14:21:53;;;;;;;1.63;1.13;;;;;;;;;;4962460;28;20038;-84
2023/01/02 14:24:38;;;;;;;3.20;1.33;;;;;;;;;;4980529;28;20424;-83
2023/01/02 14:27:05;;;;;;;6.43;1.90;;;;;;;;;;4978671;28;20476;-83
2023/01/02 14:29:38;;;;;;;7.43;1.90;;;;;;;;;;4978473;28;20046;-83
2023/01/02 14:32:39;;;;;;;4.23;1.70;;;;;;;;;;4978527;28;20038;-82
2023/01/02 14:35:07;;;;;;;3.67;1.63;;;;;;;;;;4944501;28;20034;-83
2023/01/02 14:37:38;;;;;;;2.17;1.50;;;;;;;;;;4989500;28;20053;-84
2023/01/02 14:40:04;;;;;;;;;;;;;;;;;;4977953;28;20026;-83
2023/01/02 14:45:19;;;;;;;3.03;1.53;;;;;;;;;;4977375;28;20380;-81
2023/01/02 14:47:50;;;;;;;2.97;1.40;;;;;;;;;;4994252;28;20073;-82
2023/01/02 14:50:20;;;;;;;5.83;1.87;;;;;;;;;;4993927;28;20050;-81
2023/01/02 14:52:49;;;;;;;4.17;1.77;;;;;;;;;;4961007;28;20516;-82
2023/01/02 14:55:20;;;;;;;8.67;1.60;;;;;;;;;;4993317;28;20038;-82
2023/01/02 14:57:47;;;;;;;3.23;1.97;;;;;;;;;;4976393;28;20046;-83
2023/01/02 15:00:19;;;;;;;9.67;5.70;;;;;;;;;;4976457;28;20481;-82
2023/01/02 15:02:46;;;;;;;4.13;1.60;;;;;;;;;;4976872;28;20049;-83